createdAt,value
2023-04-23T00:00:37.964Z,47.60
2023-04-23T00:03:10.332Z,45.30
2023-04-23T00:05:42.075Z,46.25
2023-04-23T00:08:11.669Z,47.13
2023-04-23T00:10:39.763Z,47.70
2023-04-23T00:13:07.970Z,48.88
2023-04-23T00:15:36.656Z,48.63
2023-04-23T00:18:04.541Z,48.90
2023-04-23T00:20:32.441Z,48.80
2023-04-23T00:23:02.037Z,47.05
2023-04-23T00:25:29.986Z,50.30
2023-04-23T00:27:58.155Z,46.83
2023-04-23T00:30:25.969Z,49.95
2023-04-23T00:32:53.771Z,49.10
2023-04-23T00:35:21.594Z,50.20
2023-04-23T00:37:49.418Z,50.35
2023-04-23T00:40:18.532Z,49.20
2023-04-23T00:42:46.335Z,48.38
2023-04-23T00:45:14.158Z,48.75
2023-04-23T00:47:42.376Z,48.80
2023-04-23T00:50:11.448Z,48.53
2023-04-23T00:52:40.804Z,47.97
2023-04-23T00:55:09.587Z,47.97
2023-04-23T00:57:39.798Z,47.30
2023-04-23T01:00:09.418Z,45.72
2023-04-23T01:02:38.489Z,46.70
2023-04-23T01:05:08.695Z,48.00
2023-04-23T01:07:37.022Z,47.33
2023-04-23T01:10:05.916Z,45.83
2023-04-23T01:12:34.628Z,46.40
2023-04-23T01:15:05.761Z,44.97
2023-04-23T01:17:34.488Z,43.80
2023-04-23T01:20:02.369Z,43.97
2023-04-23T01:22:31.507Z,45.00
2023-04-23T01:24:59.344Z,42.80
2023-04-23T01:27:27.273Z,40.33
2023-04-23T01:29:55.689Z,40.58
2023-04-23T01:32:23.714Z,38.47
2023-04-23T01:34:53.957Z,39.65
2023-04-23T01:37:24.368Z,38.45
2023-04-23T01:39:53.821Z,39.00
2023-04-23T01:42:23.349Z,37.92
2023-04-23T01:44:52.338Z,38.75
2023-04-23T01:47:21.241Z,37.30
2023-04-23T01:49:49.357Z,35.95
2023-04-23T01:52:17.349Z,35.53
2023-04-23T01:54:45.129Z,34.78
2023-04-23T01:57:14.241Z,34.22
2023-04-23T01:59:43.655Z,34.03
2023-04-23T02:02:13.936Z,33.67
2023-04-23T02:04:45.544Z,33.63
2023-04-23T02:07:13.579Z,34.47
2023-04-23T02:09:42.051Z,32.92
2023-04-23T02:12:09.830Z,32.08
2023-04-23T02:14:39.198Z,30.85
2023-04-23T02:17:07.146Z,30.55
2023-04-23T02:19:35.831Z,32.55
2023-04-23T02:22:03.624Z,29.83
2023-04-23T02:24:31.362Z,30.02
2023-04-23T02:26:59.141Z,28.52
2023-04-23T02:29:26.909Z,29.33
2023-04-23T02:31:56.110Z,28.50
2023-04-23T02:34:24.089Z,28.30
2023-04-23T02:36:52.780Z,27.23
2023-04-23T02:39:20.619Z,27.65
2023-04-23T02:41:49.147Z,26.20
2023-04-23T02:44:16.926Z,27.20
2023-04-23T02:46:44.747Z,27.00
2023-04-23T02:49:14.690Z,27.10
2023-04-23T02:51:42.472Z,26.70
2023-04-23T02:54:11.237Z,26.88
2023-04-23T02:56:38.939Z,25.98
2023-04-23T02:59:07.120Z,25.67
2023-04-23T03:01:34.881Z,26.08
2023-04-23T03:04:03.593Z,25.58
2023-04-23T03:06:34.581Z,29.83
2023-04-23T03:09:02.671Z,26.45
2023-04-23T03:11:30.411Z,25.17
2023-04-23T03:13:58.302Z,24.35
2023-04-23T03:16:26.933Z,25.33
2023-04-23T03:18:54.766Z,24.52
2023-04-23T03:21:22.510Z,23.95
2023-04-23T03:23:51.608Z,24.10
2023-04-23T03:26:19.426Z,23.10
2023-04-23T03:28:47.211Z,23.83
2023-04-23T03:31:15.003Z,22.60
2023-04-23T03:33:42.799Z,22.90
2023-04-23T03:36:10.943Z,24.27
2023-04-23T03:38:38.882Z,24.00
2023-04-23T03:41:08.035Z,22.00
2023-04-23T03:43:35.783Z,22.20
2023-04-23T03:46:03.678Z,22.05
2023-04-23T03:48:31.726Z,22.63
2023-04-23T03:50:59.654Z,21.88
2023-04-23T03:53:28.008Z,22.13
2023-04-23T03:55:55.794Z,24.05
2023-04-23T03:58:25.086Z,22.45
2023-04-23T04:00:53.091Z,23.55
2023-04-23T04:03:21.590Z,23.23
2023-04-23T04:05:49.595Z,24.65
2023-04-23T04:08:17.596Z,22.67
2023-04-23T04:10:45.422Z,23.38
2023-04-23T04:13:13.330Z,24.08
2023-04-23T04:15:42.513Z,23.45
2023-04-23T04:18:10.693Z,24.38
2023-04-23T04:20:38.444Z,23.70
2023-04-23T04:23:06.293Z,24.02
2023-04-23T04:25:34.026Z,23.13
2023-04-23T04:28:01.815Z,23.88
2023-04-23T04:30:29.599Z,22.65
2023-04-23T04:32:59.946Z,24.65
2023-04-23T04:35:28.059Z,22.67
2023-04-23T04:37:55.886Z,24.83
2023-04-23T04:40:24.140Z,24.58
2023-04-23T04:42:52.966Z,23.90
2023-04-23T04:45:20.846Z,25.08
2023-04-23T04:47:48.828Z,23.17
2023-04-23T04:50:18.185Z,24.15
2023-04-23T04:52:45.970Z,23.90
2023-04-23T04:55:13.909Z,24.45
2023-04-23T04:57:41.653Z,23.80
2023-04-23T05:00:24.332Z,22.33
2023-04-23T05:02:52.451Z,24.55
2023-04-23T05:05:23.685Z,25.92
2023-04-23T05:07:51.821Z,27.42
2023-04-23T05:10:19.700Z,24.90
2023-04-23T05:12:47.815Z,25.95
2023-04-23T05:15:16.446Z,23.92
2023-04-23T05:17:45.105Z,24.88
2023-04-23T05:20:13.139Z,24.67
2023-04-23T05:22:43.438Z,25.77
2023-04-23T05:25:12.733Z,25.70
2023-04-23T05:27:41.178Z,24.30
2023-04-23T05:30:10.883Z,24.15
2023-04-23T05:32:39.290Z,24.17
2023-04-23T05:35:08.029Z,24.55
2023-04-23T05:37:35.904Z,22.73
2023-04-23T05:40:07.210Z,24.67
2023-04-23T05:42:35.969Z,23.60
2023-04-23T05:45:06.635Z,23.38
2023-04-23T05:47:35.804Z,23.70
2023-04-23T05:50:03.631Z,22.63
2023-04-23T05:52:33.435Z,23.08
2023-04-23T05:55:01.297Z,22.15
2023-04-23T05:57:30.385Z,21.90
2023-04-23T05:59:58.163Z,24.35
2023-04-23T06:02:26.220Z,21.15
2023-04-23T06:04:54.413Z,21.08
2023-04-23T06:07:22.294Z,20.80
2023-04-23T06:09:50.080Z,20.73
2023-04-23T06:12:17.896Z,21.13
2023-04-23T06:14:47.675Z,20.52
2023-04-23T06:17:15.424Z,20.25
2023-04-23T06:19:43.252Z,20.63
2023-04-23T06:22:11.106Z,19.92
2023-04-23T06:24:39.152Z,20.60
2023-04-23T06:27:07.261Z,18.40
2023-04-23T06:29:35.038Z,18.58
2023-04-23T06:32:05.111Z,17.55
2023-04-23T06:34:32.975Z,16.58
2023-04-23T06:37:01.021Z,15.85
2023-04-23T06:39:28.808Z,15.88
2023-04-23T06:41:58.132Z,15.43
2023-04-23T06:44:25.929Z,15.45
2023-04-23T06:46:53.880Z,14.65
2023-04-23T06:49:24.910Z,13.98
2023-04-23T06:51:52.721Z,13.75
2023-04-23T06:54:20.475Z,13.43
2023-04-23T06:56:48.242Z,11.98
2023-04-23T06:59:17.734Z,11.20
2023-04-23T07:01:45.512Z,11.07
2023-04-23T07:04:13.358Z,10.88
2023-04-23T07:06:42.516Z,13.77
2023-04-23T07:09:10.352Z,11.55
2023-04-23T07:11:38.142Z,10.45
2023-04-23T07:14:06.420Z,12.10
2023-04-23T07:16:36.656Z,10.00
2023-04-23T07:19:04.498Z,10.27
2023-04-23T07:21:33.130Z,8.90
2023-04-23T07:24:06.849Z,9.10
2023-04-23T07:26:35.129Z,8.90
2023-04-23T07:29:03.230Z,8.75
2023-04-23T07:31:31.099Z,8.70
2023-04-23T07:34:01.307Z,8.00
2023-04-23T07:36:29.285Z,8.15
2023-04-23T07:38:57.183Z,8.07
2023-04-23T07:41:26.423Z,14.50
2023-04-23T07:43:54.422Z,7.47
2023-04-23T07:46:22.233Z,9.13
2023-04-23T07:48:50.188Z,11.05
2023-04-23T07:51:18.057Z,6.93
2023-04-23T07:53:46.983Z,7.22
2023-04-23T07:56:15.645Z,7.63
2023-04-23T07:58:44.748Z,7.13
2023-04-23T08:01:12.533Z,6.88
2023-04-23T08:03:40.485Z,8.30
2023-04-23T08:06:08.553Z,6.45
2023-04-23T08:08:36.366Z,6.57
2023-04-23T08:11:04.159Z,5.88
2023-04-23T08:13:31.958Z,5.97
2023-04-23T08:16:01.157Z,5.97
2023-04-23T08:18:28.928Z,5.78
2023-04-23T08:20:57.575Z,7.18
2023-04-23T08:23:25.726Z,6.85
2023-04-23T08:25:53.495Z,6.60
2023-04-23T08:28:21.374Z,5.65
2023-04-23T08:30:49.274Z,5.97
2023-04-23T08:33:18.464Z,6.03
2023-04-23T08:35:46.468Z,5.78
2023-04-23T08:38:14.205Z,5.20
2023-04-23T08:40:43.582Z,5.38
2023-04-23T08:43:17.261Z,4.65
2023-04-23T08:45:47.588Z,6.28
2023-04-23T08:48:15.955Z,6.05
2023-04-23T08:50:46.029Z,4.72
2023-04-23T08:53:19.173Z,4.97
2023-04-23T08:55:48.077Z,4.95
2023-04-23T08:58:16.464Z,5.60
2023-04-23T09:00:44.830Z,4.50
2023-04-23T09:03:16.335Z,4.25
2023-04-23T09:05:46.564Z,4.88
2023-04-23T09:08:14.414Z,4.70
2023-04-23T09:10:43.680Z,5.20
2023-04-23T09:13:14.075Z,4.40
2023-04-23T09:16:32.478Z,4.20
2023-04-23T09:19:00.452Z,3.70
2023-04-23T09:21:29.585Z,4.18
2023-04-23T09:24:05.668Z,4.93
2023-04-23T09:26:33.544Z,4.93
2023-04-23T09:29:01.339Z,3.95
2023-04-23T09:31:29.139Z,4.15
2023-04-23T09:33:56.961Z,3.38
2023-04-23T09:36:25.292Z,3.67
2023-04-23T09:38:57.598Z,3.58
2023-04-23T09:41:26.684Z,3.30
2023-04-23T09:43:55.725Z,3.92
2023-04-23T09:46:40.411Z,4.03
2023-04-23T09:49:11.290Z,6.68
2023-04-23T09:51:40.638Z,4.82
2023-04-23T09:54:18.760Z,3.45
2023-04-23T09:56:51.527Z,3.38
2023-04-23T09:59:32.599Z,4.20
2023-04-23T10:02:12.485Z,3.20
2023-04-23T10:04:41.945Z,3.33
2023-04-23T10:09:45.951Z,3.40
2023-04-23T10:14:49.295Z,3.83
2023-04-23T10:17:18.113Z,2.60
2023-04-23T10:19:46.737Z,2.80
2023-04-23T10:22:19.944Z,3.05
2023-04-23T10:24:56.018Z,3.08
2023-04-23T10:27:44.155Z,2.72
2023-04-23T10:30:16.646Z,2.70
2023-04-23T10:32:46.118Z,3.33
2023-04-23T10:35:13.949Z,3.10
2023-04-23T10:37:42.744Z,3.00
2023-04-23T10:40:15.205Z,3.70
2023-04-23T10:42:45.476Z,2.53
2023-04-23T10:45:24.059Z,2.30
2023-04-23T10:47:55.092Z,2.53
2023-04-23T10:50:24.800Z,2.22
2023-04-23T10:52:54.554Z,2.85
2023-04-23T10:55:25.623Z,3.85
2023-04-23T10:58:02.381Z,2.38
2023-04-23T11:00:43.069Z,2.13
2023-04-23T11:03:31.751Z,2.22
2023-04-23T11:06:02.902Z,1.77
2023-04-23T11:08:32.528Z,2.00
2023-04-23T11:11:03.385Z,1.70
2023-04-23T11:13:31.310Z,2.53
2023-04-23T11:16:16.048Z,2.78
2023-04-23T11:18:57.815Z,2.45
2023-04-23T11:21:59.119Z,2.30
2023-04-23T11:24:29.527Z,1.90
2023-04-23T11:26:59.382Z,2.00
2023-04-23T11:29:29.177Z,2.00
2023-04-23T11:32:03.211Z,2.35
2023-04-23T11:34:31.852Z,2.35
2023-04-23T11:37:00.810Z,1.90
2023-04-23T11:39:28.642Z,1.67
2023-04-23T11:41:59.283Z,1.70
2023-04-23T11:44:27.225Z,1.80
2023-04-23T11:46:57.092Z,1.63
2023-04-23T11:49:26.379Z,1.88
2023-04-23T11:51:54.362Z,1.83
2023-04-23T11:54:27.659Z,2.22
2023-04-23T11:56:58.145Z,1.88
2023-04-23T11:59:27.593Z,2.05
2023-04-23T12:01:57.223Z,1.67
2023-04-23T12:04:26.692Z,1.50
2023-04-23T12:06:56.049Z,2.40
2023-04-23T12:09:25.301Z,1.80
2023-04-23T12:11:53.388Z,2.45
2023-04-23T12:14:28.593Z,1.80
2023-04-23T12:16:58.295Z,1.95
2023-04-23T12:19:29.376Z,2.53
2023-04-23T12:21:59.005Z,1.80
2023-04-23T12:24:28.384Z,1.63
2023-04-23T12:26:58.428Z,1.70
2023-04-23T12:29:27.351Z,2.10
2023-04-23T12:31:59.131Z,1.98
2023-04-23T12:34:28.277Z,1.70
2023-04-23T12:36:58.078Z,1.60
2023-04-23T12:39:30.695Z,1.65
2023-04-23T12:42:01.635Z,2.03
2023-04-23T12:44:30.526Z,1.63
2023-04-23T12:47:00.318Z,2.20
2023-04-23T12:49:31.600Z,1.45
2023-04-23T12:52:01.466Z,2.13
2023-04-23T12:54:31.388Z,1.52
2023-04-23T12:57:00.291Z,1.95
2023-04-23T12:59:28.142Z,1.83
2023-04-23T13:01:56.277Z,1.90
2023-04-23T13:04:24.242Z,2.08
2023-04-23T13:06:53.499Z,1.70
2023-04-23T13:09:22.156Z,2.92
2023-04-23T13:11:50.595Z,2.30
2023-04-23T13:14:18.845Z,2.15
2023-04-23T13:16:46.762Z,1.90
2023-04-23T13:19:16.247Z,2.25
2023-04-23T13:21:44.118Z,1.67
2023-04-23T13:24:13.539Z,1.73
2023-04-23T13:26:41.503Z,2.75
2023-04-23T13:29:09.379Z,7.32
2023-04-23T13:31:37.206Z,3.45
2023-04-23T13:34:05.317Z,1.58
2023-04-23T13:36:33.167Z,1.67
2023-04-23T13:39:00.949Z,1.50
2023-04-23T13:41:30.486Z,1.98
2023-04-23T13:43:58.570Z,4.28
2023-04-23T13:46:26.684Z,2.40
2023-04-23T13:48:54.827Z,2.95
2023-04-23T13:51:34.040Z,2.10
2023-04-23T13:54:03.091Z,1.80
2023-04-23T13:56:32.769Z,1.40
2023-04-23T14:01:33.110Z,2.33
2023-04-23T14:04:01.088Z,2.80
2023-04-23T14:06:29.247Z,2.53
2023-04-23T14:08:57.813Z,5.85
2023-04-23T14:11:26.001Z,2.17
2023-04-23T14:13:56.622Z,2.08
2023-04-23T14:16:38.314Z,2.20
2023-04-23T14:19:06.129Z,2.08
2023-04-23T14:21:35.775Z,2.85
2023-04-23T14:24:10.604Z,2.17
2023-04-23T14:26:48.897Z,2.10
2023-04-23T14:29:26.338Z,3.08
2023-04-23T14:31:54.371Z,2.22
2023-04-23T14:34:22.468Z,2.05
2023-04-23T14:36:52.803Z,2.78
2023-04-23T14:39:21.057Z,2.65
2023-04-23T14:41:48.897Z,5.35
2023-04-23T14:44:16.816Z,2.50
2023-04-23T14:46:46.060Z,3.05
2023-04-23T14:49:14.391Z,3.17
2023-04-23T14:51:42.650Z,3.08
2023-04-23T14:54:10.567Z,5.57
2023-04-23T14:56:38.413Z,2.85
2023-04-23T14:59:06.263Z,2.75
2023-04-23T15:01:34.099Z,2.80
2023-04-23T15:04:03.456Z,2.72
2023-04-23T15:06:38.408Z,2.50
2023-04-23T15:09:06.240Z,2.65
2023-04-23T15:11:34.585Z,2.30
2023-04-23T15:14:07.528Z,1.92
2023-04-23T15:19:10.135Z,2.50
2023-04-23T15:21:38.286Z,3.20
2023-04-23T15:24:07.781Z,2.00
2023-04-23T15:26:36.326Z,2.15
2023-04-23T15:29:04.670Z,2.20
2023-04-23T15:31:32.595Z,3.45
2023-04-23T15:34:00.544Z,1.70
2023-04-23T15:36:29.661Z,2.15
2023-04-23T15:38:57.490Z,1.85
2023-04-23T15:41:27.080Z,1.88
2023-04-23T15:43:55.758Z,1.80
2023-04-23T15:46:23.598Z,1.63
2023-04-23T15:48:51.536Z,1.50
2023-04-23T15:51:19.518Z,2.17
2023-04-23T15:53:49.053Z,2.40
2023-04-23T15:56:16.830Z,1.77
2023-04-23T15:58:44.647Z,1.92
2023-04-23T16:01:12.478Z,2.75
2023-04-23T16:03:42.511Z,2.30
2023-04-23T16:06:13.576Z,2.15
2023-04-23T16:08:41.336Z,2.20
2023-04-23T16:11:10.714Z,1.50
2023-04-23T16:13:38.533Z,1.63
2023-04-23T16:16:06.663Z,1.77
2023-04-23T16:18:37.066Z,1.52
2023-04-23T16:21:06.227Z,1.65
2023-04-23T16:23:34.087Z,2.30
2023-04-23T16:26:02.550Z,2.40
2023-04-23T16:28:31.740Z,3.00
2023-04-23T16:30:59.534Z,2.45
2023-04-23T16:33:27.394Z,1.80
2023-04-23T16:35:57.123Z,1.67
2023-04-23T16:38:24.934Z,2.20
2023-04-23T16:40:52.893Z,2.50
2023-04-23T16:43:20.724Z,2.65
2023-04-23T16:45:49.962Z,3.47
2023-04-23T16:48:19.896Z,2.70
2023-04-23T16:50:53.135Z,2.22
2023-04-23T16:53:25.339Z,2.17
2023-04-23T16:55:53.172Z,2.35
2023-04-23T16:58:22.804Z,2.20
2023-04-23T17:00:52.059Z,2.28
2023-04-23T17:03:19.970Z,2.15
2023-04-23T17:05:51.328Z,2.10
2023-04-23T17:08:19.229Z,2.25
2023-04-23T17:10:47.141Z,2.17
2023-04-23T17:13:14.980Z,1.65
2023-04-23T17:15:43.176Z,1.55
2023-04-23T17:18:12.599Z,1.95
2023-04-23T17:20:40.590Z,1.40
2023-04-23T17:23:08.410Z,1.90
2023-04-23T17:25:36.176Z,1.70
2023-04-23T17:28:03.981Z,1.65
2023-04-23T17:30:31.829Z,1.58
2023-04-23T17:32:59.789Z,1.67
2023-04-23T17:35:28.986Z,2.03
2023-04-23T17:37:56.735Z,2.13
2023-04-23T17:40:24.500Z,1.98
2023-04-23T17:42:52.295Z,1.80
2023-04-23T17:45:20.181Z,1.70
2023-04-23T17:47:48.052Z,2.28
2023-04-23T17:50:15.929Z,2.35
2023-04-23T17:52:45.287Z,1.92
2023-04-23T17:55:13.340Z,1.70
2023-04-23T17:57:41.278Z,1.58
2023-04-23T18:00:12.253Z,1.50
2023-04-23T18:02:41.646Z,1.38
2023-04-23T18:05:10.294Z,1.65
2023-04-23T18:07:38.574Z,1.42
2023-04-23T18:10:09.957Z,1.65
2023-04-23T18:12:37.987Z,1.88
2023-04-23T18:15:06.173Z,1.95
2023-04-23T18:17:33.960Z,1.63
2023-04-23T18:20:01.806Z,1.75
2023-04-23T18:22:29.622Z,1.85
2023-04-23T18:24:57.446Z,2.00
2023-04-23T18:27:27.117Z,2.50
2023-04-23T18:29:57.631Z,1.80
2023-04-23T18:32:37.499Z,2.10
2023-04-23T18:35:08.371Z,2.70
2023-04-23T18:37:42.866Z,2.35
2023-04-23T18:40:11.330Z,2.03
2023-04-23T18:42:40.586Z,1.75
2023-04-23T18:45:10.673Z,2.15
2023-04-23T18:47:44.251Z,2.58
2023-04-23T18:50:31.761Z,3.08
2023-04-23T18:52:59.537Z,2.30
2023-04-23T18:55:27.458Z,2.03
2023-04-23T18:57:57.346Z,2.22
2023-04-23T19:00:25.539Z,2.38
2023-04-23T19:02:53.558Z,2.88
2023-04-23T19:05:21.654Z,2.28
2023-04-23T19:07:49.615Z,2.63
2023-04-23T19:10:17.772Z,2.85
2023-04-23T19:12:45.545Z,2.63
2023-04-23T19:15:15.691Z,2.45
2023-04-23T19:17:43.754Z,2.45
2023-04-23T19:20:12.884Z,2.90
2023-04-23T19:22:42.212Z,3.53
2023-04-23T19:25:11.086Z,2.80
2023-04-23T19:27:39.133Z,3.15
2023-04-23T19:30:10.063Z,2.80
2023-04-23T19:32:39.278Z,3.50
2023-04-23T19:35:07.502Z,3.65
2023-04-23T19:37:36.163Z,3.35
2023-04-23T19:40:04.928Z,3.72
2023-04-23T19:42:32.721Z,3.30
2023-04-23T19:45:00.513Z,3.38
2023-04-23T19:47:28.410Z,3.30
2023-04-23T19:49:57.722Z,3.22
2023-04-23T19:52:27.665Z,3.80
2023-04-23T19:54:55.888Z,4.05
2023-04-23T19:57:23.824Z,2.97
2023-04-23T19:59:51.669Z,2.45
2023-04-23T20:02:19.723Z,1.60
2023-04-23T20:04:47.669Z,1.77
2023-04-23T20:07:16.980Z,0.93
2023-04-23T20:09:45.160Z,1.67
2023-04-23T20:12:14.567Z,1.50
2023-04-23T20:14:42.790Z,2.58
2023-04-23T20:17:10.887Z,1.30
2023-04-23T20:19:38.850Z,1.00
2023-04-23T20:22:06.849Z,1.10
2023-04-23T20:24:38.180Z,2.15
2023-04-23T20:27:06.995Z,1.40
2023-04-23T20:29:34.880Z,0.90
2023-04-23T20:32:02.735Z,1.00
2023-04-23T20:34:30.620Z,1.20
2023-04-23T20:37:00.193Z,0.90
2023-04-23T20:39:28.037Z,1.20
2023-04-23T20:41:57.840Z,1.23
2023-04-23T20:44:25.963Z,1.02
2023-04-23T20:46:54.022Z,1.02
2023-04-23T20:49:22.402Z,1.05
2023-04-23T20:51:50.418Z,1.00
2023-04-23T20:54:18.364Z,1.15
2023-04-23T20:56:46.325Z,1.20
2023-04-23T20:59:15.996Z,0.90
2023-04-23T21:01:44.134Z,2.20
2023-04-23T21:04:12.273Z,1.20
2023-04-23T21:06:40.475Z,1.38
2023-04-23T21:09:08.435Z,1.30
2023-04-23T21:11:36.261Z,1.10
2023-04-23T21:14:08.517Z,1.15
2023-04-23T21:16:39.592Z,1.23
2023-04-23T21:19:07.575Z,1.40
2023-04-23T21:21:35.402Z,1.30
2023-04-23T21:24:03.191Z,1.58
2023-04-23T21:26:31.910Z,1.33
2023-04-23T21:28:59.884Z,2.65
2023-04-23T21:31:39.827Z,1.80
2023-04-23T21:34:09.807Z,2.47
2023-04-23T21:36:39.129Z,2.35
2023-04-23T21:39:09.031Z,2.60
2023-04-23T21:41:38.367Z,2.50
2023-04-23T21:44:06.371Z,2.00
2023-04-23T21:46:34.475Z,1.30
2023-04-23T21:49:02.546Z,1.60
2023-04-23T21:51:36.836Z,1.77
2023-04-23T21:54:05.601Z,1.60
2023-04-23T21:56:33.790Z,1.92
2023-04-23T21:59:01.660Z,1.58
2023-04-23T22:01:29.690Z,1.20
2023-04-23T22:03:59.227Z,1.20
2023-04-23T22:06:27.685Z,0.88
2023-04-23T22:08:57.561Z,1.00
2023-04-23T22:11:25.837Z,1.10
2023-04-23T22:13:53.865Z,1.10
2023-04-23T22:16:28.543Z,1.00
2023-04-23T22:18:56.845Z,0.90
2023-04-23T22:21:24.711Z,2.45
2023-04-23T22:23:52.885Z,0.85
2023-04-23T22:26:22.190Z,1.42
2023-04-23T22:28:50.043Z,1.08
2023-04-23T22:31:18.401Z,0.98
2023-04-23T22:33:46.604Z,1.40
2023-04-23T22:36:15.067Z,1.00
2023-04-23T22:38:43.105Z,1.00
2023-04-23T22:41:11.079Z,0.80
2023-04-23T22:43:40.406Z,0.73
2023-04-23T22:46:08.268Z,0.85
2023-04-23T22:48:37.882Z,0.63
2023-04-23T22:51:07.092Z,0.98
2023-04-23T22:53:35.053Z,1.05
2023-04-23T22:56:03.434Z,0.70
2023-04-23T22:58:31.480Z,0.70
2023-04-23T23:01:01.935Z,0.38
2023-04-23T23:03:29.975Z,0.57
2023-04-23T23:05:57.822Z,0.60
2023-04-23T23:08:25.642Z,0.63
2023-04-23T23:10:53.654Z,0.75
2023-04-23T23:13:21.399Z,0.63
2023-04-23T23:15:49.208Z,0.68
2023-04-23T23:18:18.411Z,0.80
2023-04-23T23:20:46.665Z,0.95
2023-04-23T23:23:14.596Z,0.93
2023-04-23T23:25:42.450Z,0.90
2023-04-23T23:28:10.392Z,1.00
2023-04-23T23:30:38.223Z,1.00
2023-04-23T23:33:06.446Z,1.20
2023-04-23T23:35:35.768Z,0.90
2023-04-23T23:38:03.831Z,1.30
2023-04-23T23:40:31.641Z,0.95
2023-04-23T23:42:59.574Z,0.80
2023-04-23T23:45:27.503Z,0.90
2023-04-23T23:47:56.146Z,0.80
2023-04-23T23:50:23.974Z,0.73
2023-04-23T23:52:53.168Z,0.98
2023-04-23T23:55:21.284Z,0.60
2023-04-23T23:57:49.099Z,1.00
